Time;durP1;ratioP1;P1;durP2;ratioP2;P2;SDS_P1;SDS_P2;PMS_P1;PMS_P2;Temp;Humidity;BMP_temperature;BMP_pressure;BME280_temperature;BME280_humidity;BME280_pressure;Samples;Min_cycle;Max_cycle;Signal;HPM_P1;HPM_P2
2021/07/03 00:00:08;;;;;;;10.33;6.57;;;;;;;10.66;100.00;94001.28;5134922;27;20211;-77
2021/07/03 00:02:34;;;;;;;13.90;6.80;;;;;;;10.76;100.00;94000.94;5134693;27;20246;-77
2021/07/03 00:05:01;;;;;;;10.67;6.10;;;;;;;10.74;100.00;94003.72;5134814;27;20196;-76
2021/07/03 00:07:28;;;;;;;10.53;6.13;;;;;;;10.67;100.00;94008.09;5134532;27;20199;-76
2021/07/03 00:09:55;;;;;;;12.90;6.73;;;;;;;10.64;100.00;94002.47;5134625;27;20669;-76
2021/07/03 00:12:21;;;;;;;17.07;6.83;;;;;;;10.72;100.00;93997.91;5134666;27;20200;-77
2021/07/03 00:14:48;;;;;;;12.43;6.07;;;;;;;10.92;100.00;94004.97;5134559;27;20224;-76
2021/07/03 00:17:14;;;;;;;11.57;6.17;;;;;;;10.99;100.00;94008.44;5134529;27;20200;-77
2021/07/03 00:19:41;;;;;;;9.77;5.63;;;;;;;11.04;100.00;94002.59;5134297;27;20201;-77
2021/07/03 00:22:07;;;;;;;14.47;6.30;;;;;;;10.96;100.00;94001.00;5134350;27;20200;-76
2021/07/03 00:24:35;;;;;;;14.27;6.73;;;;;;;10.82;100.00;93996.72;5134641;27;20196;-76
2021/07/03 00:27:01;;;;;;;12.27;6.20;;;;;;;10.73;100.00;93990.88;5134244;27;20201;-78
2021/07/03 00:29:28;;;;;;;10.70;6.27;;;;;;;10.71;100.00;93998.91;5134161;27;20212;-77
2021/07/03 00:31:54;;;;;;;11.97;6.80;;;;;;;10.74;100.00;93997.69;5134157;27;20201;-77
2021/07/03 00:34:21;;;;;;;10.90;6.37;;;;;;;10.79;100.00;93997.09;5134069;27;20232;-77
2021/07/03 00:36:47;;;;;;;12.00;6.17;;;;;;;10.82;100.00;93996.72;5134187;27;20200;-77
2021/07/03 00:39:14;;;;;;;9.73;5.50;;;;;;;10.69;100.00;94002.69;5133557;27;20210;-76
2021/07/03 00:41:42;;;;;;;11.07;6.00;;;;;;;10.51;100.00;93992.81;5134111;27;20575;-76
2021/07/03 00:44:08;;;;;;;12.37;6.50;;;;;;;10.44;100.00;93997.16;5133981;27;20598;-77
2021/07/03 00:46:34;;;;;;;12.10;6.60;;;;;;;10.36;100.00;93998.94;5134081;27;20196;-76
2021/07/03 00:49:01;;;;;;;15.67;6.67;;;;;;;10.47;100.00;94005.41;5133969;27;20203;-77
2021/07/03 00:51:28;;;;;;;11.88;6.55;;;;;;;10.62;100.00;94004.47;5133715;27;20436;-76
2021/07/03 00:53:54;;;;;;;14.63;6.97;;;;;;;10.59;100.00;94005.69;5134142;28;20228;-77
2021/07/03 00:56:21;;;;;;;14.73;6.67;;;;;;;10.54;100.00;93992.38;5133959;28;20201;-77
2021/07/03 00:58:49;;;;;;;13.10;6.93;;;;;;;10.59;100.00;93995.25;5134011;28;20203;-77
2021/07/03 01:01:16;;;;;;;14.40;7.27;;;;;;;10.58;100.00;93996.22;5133852;28;20262;-77
2021/07/03 01:03:42;;;;;;;12.47;6.67;;;;;;;10.54;100.00;93995.81;5133662;28;20200;-77
2021/07/03 01:06:09;;;;;;;13.47;7.20;;;;;;;10.51;100.00;93990.19;5133780;28;20200;-75
2021/07/03 01:08:35;;;;;;;15.97;7.67;;;;;;;10.44;100.00;93997.16;5133896;28;20200;-77
2021/07/03 01:11:02;;;;;;;18.47;7.47;;;;;;;10.55;100.00;93996.63;5133629;28;20563;-76
2021/07/03 01:13:29;;;;;;;13.67;7.00;;;;;;;10.61;100.00;94002.84;5133849;28;20359;-77
2021/07/03 01:15:57;;;;;;;11.97;6.97;;;;;;;10.54;100.00;94002.81;5133785;28;20193;-76
2021/07/03 01:18:24;;;;;;;10.93;6.40;;;;;;;10.46;100.00;93996.00;5133534;28;20655;-75
2021/07/03 01:20:54;;;;;;;13.20;7.47;;;;;;;10.37;100.00;93997.13;5133649;28;20208;-77
2021/07/03 01:23:23;;;;;;;14.93;6.93;;;;;;;10.25;100.00;93981.19;5133706;28;20211;-76
2021/07/03 01:25:56;;;;;;;16.97;7.30;;;;;;;10.21;100.00;93992.19;5133923;28;20200;-77
2021/07/03 01:28:22;;;;;;;13.27;7.70;;;;;;;10.18;100.00;93993.41;5133767;28;20275;-75
2021/07/03 01:30:49;;;;;;;13.97;7.70;;;;;;;10.23;100.00;93991.03;5133477;28;20207;-76
2021/07/03 01:33:16;;;;;;;12.73;7.20;;;;;;;10.27;100.00;93997.44;5133411;28;20596;-76
2021/07/03 01:35:42;;;;;;;14.90;8.32;;;;;;;10.22;100.00;93994.63;5132872;28;21049;-77
2021/07/03 01:38:10;;;;;;;13.07;7.33;;;;;;;10.18;100.00;93996.00;5133718;28;20197;-77
2021/07/03 01:40:38;;;;;;;11.97;7.37;;;;;;;10.05;100.00;93994.13;5133571;28;20579;-76
2021/07/03 01:43:04;;;;;;;14.37;7.93;;;;;;;10.09;100.00;93997.16;5133413;28;20192;-77
2021/07/03 01:45:30;;;;;;;14.80;7.27;;;;;;;10.16;100.00;93998.00;5133436;28;20200;-77
2021/07/03 01:47:57;;;;;;;14.83;7.80;;;;;;;10.16;100.00;94005.84;5133016;28;20201;-76
2021/07/03 01:50:23;;;;;;;15.90;8.60;;;;;;;10.21;100.00;94002.63;5133672;27;20200;-76
2021/07/03 01:52:51;;;;;;;15.40;7.87;;;;;;;10.26;100.00;94006.28;5137351;27;20201;-77
2021/07/03 01:55:17;;;;;;;20.43;8.60;;;;;;;10.28;100.00;94001.69;5137327;27;20314;-76
2021/07/03 01:57:45;;;;;;;15.60;8.20;;;;;;;10.30;100.00;93997.06;5137166;27;20242;-77
2021/07/03 02:00:12;;;;;;;15.20;7.97;;;;;;;10.38;100.00;93990.13;5136928;27;20208;-76
2021/07/03 02:02:39;;;;;;;14.73;7.77;;;;;;;10.29;100.00;93990.25;5137222;27;20201;-76
2021/07/03 02:05:06;;;;;;;16.37;8.07;;;;;;;10.25;100.00;93999.44;5137184;27;20212;-76
2021/07/03 02:07:33;;;;;;;16.70;8.33;;;;;;;10.29;100.00;93997.25;5137043;27;20257;-76
2021/07/03 02:10:00;;;;;;;19.27;7.87;;;;;;;10.39;100.00;93989.91;5136972;27;20205;-77
2021/07/03 02:12:26;;;;;;;18.73;7.87;;;;;;;10.47;100.00;93988.94;5136852;27;20193;-77
2021/07/03 02:14:54;;;;;;;14.03;8.00;;;;;;;10.49;100.00;93979.94;5136615;27;20280;-77
2021/07/03 02:17:21;;;;;;;15.77;8.00;;;;;;;10.49;100.00;93977.34;5136928;27;20205;-77
2021/07/03 02:19:47;;;;;;;15.10;8.10;;;;;;;10.45;100.00;93977.91;5135929;27;20433;-76
2021/07/03 02:22:14;;;;;;;14.83;7.63;;;;;;;10.50;100.00;93967.69;5136807;27;20199;-77
2021/07/03 02:24:40;;;;;;;19.40;7.90;;;;;;;10.52;100.00;93969.13;5136705;27;20205;-74
2021/07/03 02:27:07;;;;;;;14.87;7.67;;;;;;;10.57;100.00;93965.91;5136284;27;20203;-78
2021/07/03 02:29:33;;;;;;;17.53;7.70;;;;;;;10.54;100.00;93968.88;5136789;27;20201;-76
2021/07/03 02:32:01;;;;;;;14.87;8.03;;;;;;;10.61;100.00;93961.09;5136627;27;20208;-76
2021/07/03 02:34:28;;;;;;;15.00;7.80;;;;;;;10.61;100.00;93961.91;5136503;27;20229;-76
2021/07/03 02:36:54;;;;;;;15.70;7.13;;;;;;;10.63;100.00;93953.88;5136536;27;20197;-76
2021/07/03 02:39:21;;;;;;;15.90;7.43;;;;;;;10.65;100.00;93957.88;5136494;27;20192;-75
2021/07/03 02:41:47;;;;;;;14.90;6.90;;;;;;;10.54;100.00;93958.44;5136207;27;20197;-75
2021/07/03 02:44:14;;;;;;;19.97;8.10;;;;;;;10.52;100.00;93957.84;5136377;27;20204;-77
2021/07/03 02:46:40;;;;;;;15.30;7.80;;;;;;;10.52;100.00;93963.06;5136377;27;20197;-77
2021/07/03 02:49:09;;;;;;;12.97;7.10;;;;;;;10.46;100.00;93962.06;5136198;27;20200;-76
2021/07/03 02:51:36;;;;;;;14.13;7.47;;;;;;;10.46;100.00;93963.84;5136101;27;20204;-76
2021/07/03 02:54:02;;;;;;;15.77;7.90;;;;;;;10.47;100.00;93973.28;5135981;27;20235;-76
2021/07/03 02:56:29;;;;;;;16.63;8.27;;;;;;;10.43;100.00;93967.66;5135927;27;20686;-75
2021/07/03 02:58:55;;;;;;;12.77;7.53;;;;;;;10.31;100.00;93980.44;5135916;27;20728;-76
2021/07/03 03:01:22;;;;;;;13.23;7.77;;;;;;;10.37;100.00;93965.81;5136088;27;20192;-76
2021/07/03 03:03:48;;;;;;;17.20;8.63;;;;;;;10.32;100.00;93963.78;5134703;27;20510;-76
2021/07/03 03:06:16;;;;;;;18.73;8.07;;;;;;;10.29;100.00;93958.94;5136106;27;20197;-76
2021/07/03 03:08:43;;;;;;;14.73;7.50;;;;;;;10.19;100.00;93963.69;5135714;27;20219;-75
2021/07/03 03:11:09;;;;;;;14.73;7.07;;;;;;;10.15;100.00;93957.25;5135889;27;20215;-77
2021/07/03 03:13:36;;;;;;;22.97;8.10;;;;;;;10.12;100.00;93953.22;5135672;27;20197;-77
2021/07/03 03:16:03;;;;;;;18.57;8.40;;;;;;;10.14;100.00;93961.69;5135718;27;20200;-76
2021/07/03 03:18:29;;;;;;;16.40;8.37;;;;;;;10.13;100.00;93961.88;5135657;27;20196;-77
2021/07/03 03:20:56;;;;;;;14.43;8.13;;;;;;;10.18;100.00;93969.94;5135657;27;20196;-76
2021/07/03 03:23:23;;;;;;;15.87;7.73;;;;;;;10.29;100.00;93973.78;5135378;27;20249;-76
2021/07/03 03:25:50;;;;;;;16.50;8.20;;;;;;;10.39;100.00;93973.44;5135566;27;20201;-76
2021/07/03 03:28:16;;;;;;;12.67;7.57;;;;;;;10.38;100.00;93971.88;5135340;27;20233;-77
2021/07/03 03:30:43;;;;;;;16.73;7.93;;;;;;;10.34;100.00;93979.25;5135382;27;20203;-76
2021/07/03 03:33:09;;;;;;;15.93;7.03;;;;;;;10.28;100.00;93972.97;5135422;27;20199;-77
2021/07/03 03:35:36;;;;;;;13.70;7.50;;;;;;;10.22;100.00;93971.13;5135237;27;20228;-76
2021/07/03 03:38:03;;;;;;;13.63;6.67;;;;;;;10.15;100.00;93963.28;5134977;27;20528;-76
2021/07/03 03:40:30;;;;;;;15.87;7.53;;;;;;;10.15;100.00;93963.28;5135038;27;20226;-76
2021/07/03 03:42:57;;;;;;;16.27;7.73;;;;;;;10.19;100.00;93963.69;5135085;27;20208;-75
2021/07/03 03:45:24;;;;;;;16.83;7.53;;;;;;;10.22;100.00;93947.66;5135326;27;20208;-75
2021/07/03 03:47:51;;;;;;;13.25;7.38;;;;;;;10.22;100.00;93958.09;5134993;27;20432;-74
2021/07/03 03:50:17;;;;;;;17.07;7.57;;;;;;;10.33;100.00;93959.38;5134324;27;20651;-75
2021/07/03 03:52:44;;;;;;;16.50;7.33;;;;;;;10.39;100.00;93955.19;5134747;27;20205;-76
2021/07/03 03:55:10;;;;;;;12.43;7.40;;;;;;;10.39;100.00;93949.97;5134738;27;20601;-76
2021/07/03 03:57:38;;;;;;;14.50;7.50;;;;;;;10.40;100.00;93948.97;5134906;27;20204;-75
2021/07/03 04:00:06;;;;;;;13.70;7.10;;;;;;;10.42;100.00;93952.19;5134860;27;20288;-75
2021/07/03 04:02:33;;;;;;;13.30;6.87;;;;;;;10.47;100.00;93955.03;5134978;27;20209;-76
2021/07/03 04:04:59;;;;;;;12.77;7.37;;;;;;;10.46;100.00;93953.41;5134789;27;20204;-76
2021/07/03 04:07:26;;;;;;;13.23;6.83;;;;;;;10.45;100.00;93954.41;5134844;27;20559;-76
2021/07/03 04:09:52;;;;;;;22.53;7.70;;;;;;;10.43;100.00;93959.03;5134704;27;20201;-76
2021/07/03 04:12:19;;;;;;;19.37;7.10;;;;;;;10.38;100.00;93962.22;5134601;27;20197;-79
2021/07/03 04:14:47;;;;;;;12.73;7.07;;;;;;;10.36;100.00;93959.81;5134512;27;20232;-77
2021/07/03 04:17:13;;;;;;;12.37;7.17;;;;;;;10.35;100.00;93962.59;5134419;27;20192;-76
2021/07/03 04:19:40;;;;;;;16.73;6.57;;;;;;;10.37;100.00;93960.59;5134268;27;20204;-77
2021/07/03 04:22:07;;;;;;;13.93;7.23;;;;;;;10.50;100.00;93959.84;5134601;27;20288;-76
2021/07/03 04:24:33;;;;;;;14.30;6.87;;;;;;;10.56;100.00;93959.09;5134312;27;20683;-77
2021/07/03 04:27:00;;;;;;;12.00;7.30;;;;;;;10.61;100.00;93954.06;5134227;27;20551;-77
2021/07/03 04:29:26;;;;;;;17.77;7.37;;;;;;;10.63;100.00;93944.22;5134391;27;20208;-77
2021/07/03 04:31:54;;;;;;;12.83;7.17;;;;;;;10.66;100.00;93938.63;5134210;27;20754;-76
2021/07/03 04:34:20;;;;;;;12.57;6.57;;;;;;;10.78;100.00;93936.25;5134180;27;20231;-75
2021/07/03 04:36:47;;;;;;;13.77;7.03;;;;;;;10.85;100.00;93931.03;5134314;27;20200;-77
2021/07/03 04:39:17;;;;;;;13.77;6.87;;;;;;;10.85;100.00;93941.47;5134275;27;20196;-77
2021/07/03 04:41:43;;;;;;;13.73;6.77;;;;;;;10.88;100.00;93934.03;5134139;27;20200;-76
2021/07/03 04:44:11;;;;;;;14.10;6.30;;;;;;;10.92;100.00;93942.28;5134165;27;20201;-77
2021/07/03 04:46:37;;;;;;;11.73;6.60;;;;;;;10.92;100.00;93937.06;5134284;27;20283;-76
2021/07/03 04:49:05;;;;;;;17.23;7.07;;;;;;;11.01;100.00;93937.69;5134024;27;20230;-77
2021/07/03 04:51:32;;;;;;;12.17;6.67;;;;;;;11.10;100.00;93934.69;5134046;27;20196;-77
2021/07/03 04:53:58;;;;;;;11.40;6.33;;;;;;;11.31;100.00;93940.75;5134084;27;20199;-77
2021/07/03 04:56:25;;;;;;;12.27;6.30;;;;;;;11.43;100.00;93939.13;5133849;28;20621;-78
2021/07/03 04:58:51;;;;;;;13.63;6.17;;;;;;;11.57;100.00;93936.50;5134090;28;20227;-76
2021/07/03 05:01:18;;;;;;;15.93;6.60;;;;;;;11.69;100.00;93926.22;5133950;28;20200;-77
2021/07/03 05:03:44;;;;;;;11.53;6.27;;;;;;;11.87;100.00;93928.22;5134065;28;20203;-76
2021/07/03 05:06:12;;;;;;;11.27;5.70;;;;;;;12.08;100.00;93935.84;5133989;28;20207;-77
2021/07/03 05:08:39;;;;;;;9.83;5.40;;;;;;;12.25;100.00;93930.97;5133830;28;20242;-76
2021/07/03 05:11:05;;;;;;;12.87;5.90;;;;;;;12.46;100.00;93922.03;5133770;28;20701;-76
2021/07/03 05:13:32;;;;;;;9.00;5.40;;;;;;;12.66;100.00;93926.38;5133615;28;20193;-76
2021/07/03 05:15:58;;;;;;;12.20;6.27;;;;;;;12.84;100.00;93928.28;5133736;28;20235;-77
2021/07/03 05:18:25;;;;;;;8.67;5.17;;;;;;;13.03;100.00;93921.31;5133597;28;20598;-75
2021/07/03 05:20:52;;;;;;;10.10;5.30;;;;;;;13.23;100.00;93929.84;5133776;28;20197;-76
2021/07/03 05:23:20;;;;;;;9.77;5.70;;;;;;;13.48;100.00;93929.09;5133946;28;20197;-76
2021/07/03 05:25:48;;;;;;;8.77;5.27;;;;;;;13.74;100.00;93928.06;5134406;27;20272;-76
2021/07/03 05:28:15;;;;;;;8.97;5.20;;;;;;;13.92;100.00;93932.50;5137715;27;20236;-76
2021/07/03 05:30:43;;;;;;;11.90;5.70;;;;;;;14.13;100.00;93927.88;5137840;27;20208;-76
2021/07/03 05:33:12;;;;;;;11.50;5.32;;;;;;;14.40;100.00;93923.91;5137781;27;20217;-75
2021/07/03 05:35:39;;;;;;;9.00;4.97;;;;;;;14.70;100.00;93931.06;5137633;27;20225;-75
2021/07/03 05:38:05;;;;;;;7.82;4.10;;;;;;;15.10;100.00;93935.00;5137710;27;20204;-76
2021/07/03 05:40:33;;;;;;;8.52;4.50;;;;;;;15.33;100.00;93934.25;5137455;27;20197;-75
2021/07/03 05:42:59;;;;;;;5.72;3.97;;;;;;;16.02;100.00;93939.03;5137222;27;20528;-76
2021/07/03 05:45:26;;;;;;;9.10;4.75;;;;;;;17.28;96.81;93927.78;5137446;27;20209;-75
2021/07/03 05:47:53;;;;;;;6.72;4.32;;;;;;;18.23;86.15;93930.56;5137348;27;20434;-76
2021/07/03 05:50:21;;;;;;;8.52;4.05;;;;;;;19.09;81.48;93939.03;5137245;27;20758;-75
2021/07/03 05:52:48;;;;;;;7.97;3.50;;;;;;;19.99;77.94;93941.94;5137265;27;20208;-77
2021/07/03 05:55:15;;;;;;;5.43;3.38;;;;;;;20.72;74.83;93933.34;5136607;27;20216;-76
2021/07/03 05:57:43;;;;;;;5.75;3.40;;;;;;;21.55;73.01;93932.50;5137013;27;20208;-76
2021/07/03 06:00:11;;;;;;;6.35;3.53;;;;;;;22.40;65.86;93936.44;5137353;27;20197;-77
2021/07/03 06:02:37;;;;;;;6.65;3.55;;;;;;;22.84;63.83;93921.63;5137163;27;20544;-76
2021/07/03 06:05:05;;;;;;;6.32;3.20;;;;;;;23.44;65.34;93921.59;5137074;27;20766;-75
2021/07/03 06:07:32;;;;;;;5.70;3.05;;;;;;;24.39;60.20;93917.56;5136993;27;20224;-76
2021/07/03 06:09:58;;;;;;;4.03;2.97;;;;;;;25.17;57.41;93922.03;5136907;27;20199;-76
2021/07/03 06:12:25;;;;;;;7.25;2.90;;;;;;;26.15;52.97;93910.69;5136558;27;20654;-76
2021/07/03 06:14:53;;;;;;;5.28;3.10;;;;;;;26.87;50.40;93918.16;5136756;27;20694;-76
2021/07/03 06:17:20;;;;;;;5.22;3.08;;;;;;;27.13;49.69;93906.91;5136873;27;20197;-77
2021/07/03 06:19:46;;;;;;;5.05;3.80;;;;;;;25.83;49.17;93913.03;5136798;27;20204;-76
2021/07/03 06:22:14;;;;;;;7.68;3.22;;;;;;;24.17;54.70;93914.63;5136631;27;20197;-76
2021/07/03 06:24:40;;;;;;;4.85;2.88;;;;;;;24.03;55.15;93919.78;5136439;27;20215;-76
2021/07/03 06:27:07;;;;;;;4.05;2.80;;;;;;;24.20;57.57;93919.41;5136563;27;20200;-76
2021/07/03 06:29:35;;;;;;;3.90;3.22;;;;;;;23.32;53.91;93918.47;5136742;27;20216;-76
2021/07/03 06:32:03;;;;;;;5.03;3.50;;;;;;;21.35;57.87;93919.97;5136645;27;20220;-76
2021/07/03 06:34:30;;;;;;;5.20;3.58;;;;;;;20.06;63.24;93931.91;5136466;27;20197;-76
2021/07/03 06:36:57;;;;;;;6.05;3.65;;;;;;;19.57;66.63;93919.63;5135498;27;20232;-76
2021/07/03 06:39:23;;;;;;;10.27;3.92;;;;;;;19.12;67.13;93918.16;5135752;27;20648;-78
2021/07/03 06:41:50;;;;;;;5.15;3.45;;;;;;;19.04;66.44;93916.75;5136450;27;20200;-76
2021/07/03 06:44:16;;;;;;;6.68;3.58;;;;;;;18.90;72.29;93909.44;5136416;27;20197;-78
2021/07/03 06:46:43;;;;;;;7.30;3.67;;;;;;;18.29;70.29;93910.31;5136123;27;20699;-77
2021/07/03 06:49:11;;;;;;;6.60;4.07;;;;;;;18.21;77.20;93902.81;5136298;27;20211;-76
2021/07/03 06:51:37;;;;;;;8.57;3.50;;;;;;;18.48;73.41;93908.97;5136042;27;20200;-75
2021/07/03 06:54:05;;;;;;;5.72;3.72;;;;;;;18.87;74.39;93905.47;5136314;27;20204;-76
2021/07/03 06:56:31;;;;;;;4.75;3.10;;;;;;;19.67;71.00;93907.47;5136654;27;20224;-79
2021/07/03 06:58:58;;;;;;;4.75;3.58;;;;;;;19.78;66.72;93917.13;5138027;27;20208;-78
2021/07/03 07:01:24;;;;;;;4.30;3.22;;;;;;;19.75;63.95;93915.00;5136848;27;20201;-77
2021/07/03 07:03:51;;;;;;;5.28;3.30;;;;;;;19.46;65.40;93915.28;5135872;27;20207;-77
2021/07/03 07:06:18;;;;;;;4.65;3.08;;;;;;;19.50;64.37;93911.09;5135805;27;20253;-76
2021/07/03 07:08:45;;;;;;;6.65;3.65;;;;;;;19.41;66.53;93909.94;5136003;27;20197;-76
2021/07/03 07:11:11;;;;;;;5.32;3.60;;;;;;;19.35;69.85;93900.34;5135696;27;20197;-78
2021/07/03 07:13:38;;;;;;;4.78;3.47;;;;;;;19.42;68.04;93895.66;5135706;27;20207;-79
2021/07/03 07:16:05;;;;;;;9.65;3.97;;;;;;;19.33;71.86;93894.50;5135756;27;20235;-77
2021/07/03 07:18:31;;;;;;;5.22;3.30;;;;;;;19.11;66.50;93891.94;5135580;27;20193;-77
2021/07/03 07:20:58;;;;;;;5.13;3.47;;;;;;;19.40;68.53;93887.16;5135367;27;20663;-77
2021/07/03 07:23:26;;;;;;;6.50;3.33;;;;;;;19.32;67.09;93883.13;5135603;27;20199;-77
2021/07/03 07:25:52;;;;;;;5.95;3.70;;;;;;;19.39;69.36;93888.22;5135491;27;20205;-76
2021/07/03 07:28:22;;;;;;;6.22;3.20;;;;;;;19.28;68.36;93894.47;5135370;27;20319;-78
2021/07/03 07:30:48;;;;;;;4.60;3.08;;;;;;;19.19;67.37;93894.91;5135339;27;20245;-77
2021/07/03 07:33:15;;;;;;;7.50;3.80;;;;;;;19.20;69.54;93890.41;5135177;27;20546;-77
2021/07/03 07:35:41;;;;;;;5.07;3.15;;;;;;;19.44;71.46;93893.56;5135295;27;20682;-79
2021/07/03 07:38:08;;;;;;;4.63;2.97;;;;;;;19.38;64.06;93889.25;5135332;27;20192;-78
2021/07/03 07:40:36;;;;;;;4.43;3.03;;;;;;;19.38;64.15;93890.06;5135295;27;20201;-82
2021/07/03 07:43:02;;;;;;;4.68;3.20;;;;;;;19.55;67.41;93889.94;5135130;27;20204;-80
2021/07/03 07:45:29;;;;;;;6.13;3.70;;;;;;;19.52;65.23;93889.66;5135372;27;20204;-78
2021/07/03 07:47:55;;;;;;;6.00;3.45;;;;;;;19.73;68.15;93890.59;5134950;27;20547;-79
2021/07/03 07:50:22;;;;;;;5.13;3.13;;;;;;;19.69;65.25;93892.16;5135003;27;20192;-80
2021/07/03 07:52:48;;;;;;;6.05;3.35;;;;;;;19.71;65.86;93887.41;5135418;27;20675;-80
2021/07/03 07:55:15;;;;;;;5.93;3.25;;;;;;;19.75;64.66;93877.91;5134917;27;20199;-80
2021/07/03 07:57:43;;;;;;;5.53;3.25;;;;;;;19.88;64.93;93887.25;5135788;27;20590;-80
2021/07/03 08:00:10;;;;;;;5.45;3.35;;;;;;;19.74;63.98;93886.88;5134659;27;20204;-79
2021/07/03 08:02:36;;;;;;;5.95;3.72;;;;;;;19.88;63.92;93887.25;5134808;27;20232;-79
2021/07/03 08:05:04;;;;;;;9.32;3.63;;;;;;;19.93;63.08;93890.75;5135231;27;20193;-81
2021/07/03 08:07:31;;;;;;;5.72;3.47;;;;;;;19.98;65.15;93887.31;5135554;27;20659;-79
2021/07/03 08:09:58;;;;;;;5.55;3.70;;;;;;;20.10;67.43;93885.28;5135672;27;20257;-79
2021/07/03 08:12:24;;;;;;;13.32;3.55;;;;;;;19.89;65.81;93892.31;5134750;27;20247;-79
2021/07/03 08:14:52;;;;;;;4.60;3.20;;;;;;;20.05;64.85;93885.25;5134632;27;20208;-79
2021/07/03 08:17:20;;;;;;;5.25;3.50;;;;;;;20.10;64.97;93884.47;5134321;27;20229;-79
2021/07/03 08:19:51;;;;;;;5.57;3.60;;;;;;;20.24;66.39;93882.97;5134739;27;20208;-78
2021/07/03 08:22:18;;;;;;;6.18;4.00;;;;;;;20.30;73.04;93881.13;5134639;27;20200;-77
2021/07/03 08:24:47;;;;;;;4.75;3.25;;;;;;;20.27;63.75;93885.09;5134216;27;20203;-79
2021/07/03 08:27:14;;;;;;;5.47;3.47;;;;;;;20.38;67.32;93885.16;5134092;27;20228;-78
2021/07/03 08:29:43;;;;;;;6.53;3.65;;;;;;;20.58;63.19;93879.91;5134305;27;20204;-80
2021/07/03 08:32:12;;;;;;;4.70;3.40;;;;;;;20.65;63.12;93891.13;5134369;27;20256;-78
2021/07/03 08:34:39;;;;;;;7.10;4.07;;;;;;;20.70;62.02;93893.81;5133925;27;20657;-81
2021/07/03 08:37:05;;;;;;;6.43;3.65;;;;;;;20.21;57.96;93875.53;5134120;27;20224;-81
2021/07/03 08:39:33;;;;;;;6.43;3.63;;;;;;;20.18;61.00;93877.91;5138431;27;20201;-81
2021/07/03 08:42:03;;;;;;;5.00;3.35;;;;;;;20.36;63.06;93874.78;5134510;27;20663;-80
2021/07/03 08:44:29;;;;;;;7.05;3.35;;;;;;;20.57;62.63;93882.81;5134271;27;20197;-81
2021/07/03 08:46:56;;;;;;;4.57;3.05;;;;;;;20.54;60.86;93884.16;5134019;27;20811;-80
2021/07/03 08:49:27;;;;;;;5.57;3.17;;;;;;;20.99;63.58;93861.47;5134103;27;20436;-79
2021/07/03 08:51:55;;;;;;;5.70;3.75;;;;;;;21.30;61.30;93845.59;5134262;27;20204;-80
2021/07/03 08:54:22;;;;;;;7.25;3.40;;;;;;;21.38;60.56;93858.34;5134096;27;20197;-80
2021/07/03 08:56:49;;;;;;;4.97;3.45;;;;;;;21.60;59.58;93865.28;5133836;28;20224;-78
2021/07/03 08:59:17;;;;;;;5.32;3.65;;;;;;;21.49;59.12;93866.34;5134178;28;20232;-80
2021/07/03 09:01:50;;;;;;;5.10;3.33;;;;;;;21.47;60.09;93868.41;5133431;27;20214;-80
2021/07/03 09:04:37;;;;;;;4.38;3.08;;;;;;;21.14;57.61;93868.69;5134515;28;20247;-79
2021/07/03 09:07:14;;;;;;;4.88;3.10;;;;;;;21.22;62.63;93867.38;5133829;28;20196;-78
2021/07/03 09:09:51;;;;;;;5.22;3.47;;;;;;;21.28;60.67;93854.88;5134021;28;20197;-79
2021/07/03 09:12:32;;;;;;;11.05;3.40;;;;;;;21.26;60.25;93865.75;5133949;28;20235;-79
2021/07/03 09:15:10;;;;;;;6.95;2.88;;;;;;;21.18;58.83;93864.44;5134296;28;20197;-78
2021/07/03 09:17:46;;;;;;;5.00;3.42;;;;;;;21.24;59.63;93854.63;5133639;28;20259;-80
2021/07/03 09:20:25;;;;;;;5.97;3.03;;;;;;;21.17;58.45;93865.50;5133732;28;20555;-78
2021/07/03 09:22:52;;;;;;;3.83;2.70;;;;;;;21.14;55.15;93859.91;5136796;28;20227;-82
2021/07/03 09:25:33;;;;;;;5.60;3.55;;;;;;;20.98;56.85;93851.13;5135036;28;20197;-83
2021/07/03 09:28:09;;;;;;;8.23;3.85;;;;;;;20.87;59.53;93851.13;5118559;28;20230;-83
2021/07/03 09:30:36;;;;;;;5.32;3.55;;;;;;;20.94;58.29;93856.16;5093983;28;20200;-80
2021/07/03 09:33:02;;;;;;;15.82;4.43;;;;;;;21.22;62.67;93848.78;5093871;28;20210;-80
2021/07/03 09:35:30;;;;;;;12.80;5.13;;;;;;;21.30;61.97;93853.56;5090326;28;20225;-82
2021/07/03 09:38:02;;;;;;;4.85;3.28;;;;;;;21.18;59.41;93847.69;5094117;28;20225;-83
2021/07/03 09:40:30;;;;;;;5.63;2.88;;;;;;;20.80;56.74;93844.44;5095572;28;20652;-82
2021/07/03 09:43:07;;;;;;;6.47;3.72;;;;;;;20.86;58.68;93852.16;5097331;28;20221;-78
2021/07/03 09:45:39;;;;;;;6.13;3.55;;;;;;;21.04;57.44;93850.09;5096855;28;20542;-82
2021/07/03 09:48:11;;;;;;;9.88;4.63;;;;;;;21.28;57.56;93837.06;5093639;28;20195;-83
2021/07/03 09:50:40;;;;;;;6.82;3.30;;;;;;;21.54;53.62;93842.44;5096042;28;20205;-85
2021/07/03 09:53:08;;;;;;;5.82;2.88;;;;;;;21.37;54.57;93834.72;5093813;28;20241;-82
2021/07/03 09:55:39;;;;;;;10.75;3.92;;;;;;;21.72;57.83;93830.44;5096301;28;20206;-83
2021/07/03 09:58:09;;;;;;;5.53;3.10;;;;;;;21.88;63.78;93832.00;5097661;28;20198;-84
2021/07/03 10:00:42;;;;;;;5.57;3.35;;;;;;;21.80;52.31;93836.00;5095253;28;20194;-83
2021/07/03 10:03:09;;;;;;;4.30;2.67;;;;;;;21.87;53.47;93832.28;5095850;28;20201;-83
2021/07/03 10:05:48;;;;;;;3.97;2.80;;;;;;;21.76;54.51;93823.53;5097974;28;20232;-84
2021/07/03 10:08:20;;;;;;;4.35;2.95;;;;;;;21.86;53.56;93828.03;5096635;28;20497;-84
2021/07/03 10:10:54;;;;;;;6.57;3.10;;;;;;;21.67;54.44;93825.16;5097696;28;20208;-83
2021/07/03 10:13:26;;;;;;;4.50;2.85;;;;;;;21.93;54.11;93824.03;5102095;28;20206;-85
2021/07/03 10:16:03;;;;;;;5.65;3.00;;;;;;;22.40;56.06;93810.56;5100219;28;20229;-85
2021/07/03 10:18:30;;;;;;;4.47;3.35;;;;;;;21.96;52.34;93815.47;5099427;28;20197;-84
2021/07/03 10:21:07;;;;;;;3.78;2.60;;;;;;;22.04;53.71;93814.16;5099808;28;20229;-84
2021/07/03 10:23:39;;;;;;;4.07;2.90;;;;;;;22.17;50.15;93820.75;5101453;28;20198;-84
2021/07/03 10:26:05;;;;;;;5.15;3.00;;;;;;;22.14;51.31;93814.09;5101875;28;20564;-81
2021/07/03 10:28:33;;;;;;;9.07;3.30;;;;;;;21.76;52.35;93824.31;5101938;28;20229;-84
2021/07/03 10:31:11;;;;;;;4.95;2.83;;;;;;;22.02;52.78;93821.59;5097909;28;20194;-80
2021/07/03 10:33:46;;;;;;;4.60;3.17;;;;;;;21.86;51.74;93812.06;5101626;28;20212;-82
2021/07/03 10:36:25;;;;;;;4.72;3.03;;;;;;;22.32;52.84;93818.06;5095593;28;20226;-81
2021/07/03 10:38:52;;;;;;;5.70;2.72;;;;;;;22.78;52.53;93809.03;5095273;28;20198;-81
2021/07/03 10:41:23;;;;;;;6.07;3.10;;;;;;;23.12;51.66;93810.19;5095416;28;20292;-81
2021/07/03 10:43:53;;;;;;;4.85;3.33;;;;;;;23.04;54.38;93803.56;5095417;28;20206;-80
2021/07/03 10:46:31;;;;;;;6.80;3.90;;;;;;;23.15;51.38;93804.28;5095180;28;20455;-79
2021/07/03 10:49:00;;;;;;;5.93;3.17;;;;;;;23.33;54.87;93800.97;5095230;28;20280;-81
2021/07/03 10:51:34;;;;;;;4.55;2.95;;;;;;;22.95;50.41;93808.69;5094907;28;20199;-81
2021/07/03 10:54:09;;;;;;;4.13;3.10;;;;;;;22.66;53.11;93797.94;5095450;28;20198;-80
2021/07/03 10:57:00;;;;;;;6.82;3.25;;;;;;;22.73;54.98;93809.06;5095721;28;20312;-81
2021/07/03 10:59:29;;;;;;;5.13;2.90;;;;;;;22.86;55.42;93794.34;5095937;28;20569;-78
2021/07/03 11:02:09;;;;;;;8.05;3.60;;;;;;;23.08;51.64;93799.28;5095739;28;20782;-79
2021/07/03 11:04:52;;;;;;;5.40;3.47;;;;;;;23.38;52.59;93795.59;5095827;28;20261;-78
2021/07/03 11:07:23;;;;;;;3.35;2.72;;;;;;;23.51;53.81;93796.00;5094989;28;20222;-76
2021/07/03 11:09:50;;;;;;;4.38;2.95;;;;;;;23.64;52.73;93795.34;5095416;28;20557;-76
2021/07/03 11:12:24;;;;;;;6.93;3.30;;;;;;;23.61;52.31;93794.03;5094900;28;20230;-78
2021/07/03 11:14:52;;;;;;;4.38;2.90;;;;;;;23.45;50.22;93788.06;5094732;28;20229;-76
2021/07/03 11:17:21;;;;;;;4.50;3.00;;;;;;;23.41;55.25;93792.34;5094697;28;20316;-77
2021/07/03 11:19:50;;;;;;;5.72;3.28;;;;;;;23.24;55.21;93786.66;5094626;28;20255;-76
2021/07/03 11:22:22;;;;;;;4.10;3.03;;;;;;;23.12;54.57;93780.91;5094592;28;20198;-75
2021/07/03 11:24:52;;;;;;;5.22;3.30;;;;;;;23.13;52.56;93775.25;5094040;28;20202;-79
2021/07/03 11:27:31;;;;;;;4.25;3.13;;;;;;;23.65;52.02;93773.75;5096729;28;20206;-77